createdAt,value
2022-08-23T00:00:44.457Z,72.47
2022-08-23T00:04:56.934Z,72.63
2022-08-23T00:09:12.540Z,73.06
2022-08-23T00:13:15.904Z,73.07
2022-08-23T00:17:33.297Z,73.38
2022-08-23T00:21:39.033Z,73.57
2022-08-23T00:25:42.189Z,73.63
2022-08-23T00:29:49.327Z,73.56
2022-08-23T00:33:54.311Z,73.26
2022-08-23T00:38:32.886Z,73.48
2022-08-23T00:42:51.525Z,73.43
2022-08-23T00:47:15.354Z,73.56
2022-08-23T00:51:24.853Z,73.38
2022-08-23T00:55:29.680Z,73.25
2022-08-23T00:59:35.152Z,73.36
2022-08-23T01:03:43.207Z,73.12
2022-08-23T01:07:50.445Z,72.92
2022-08-23T01:12:00.113Z,73.00
2022-08-23T01:16:09.751Z,72.78
2022-08-23T01:20:16.601Z,72.79
2022-08-23T01:24:37.277Z,72.75
2022-08-23T01:28:45.955Z,72.97
2022-08-23T01:32:55.334Z,72.77
2022-08-23T01:37:00.669Z,72.95
2022-08-23T01:41:06.402Z,73.19
2022-08-23T01:45:13.185Z,73.06
2022-08-23T01:49:17.761Z,73.04
2022-08-23T01:53:21.806Z,73.06
2022-08-23T01:57:26.307Z,73.11
2022-08-23T02:01:30.134Z,73.19
2022-08-23T02:05:33.872Z,73.27
2022-08-23T02:09:37.806Z,73.41
2022-08-23T02:13:42.351Z,73.52
2022-08-23T02:17:47.197Z,73.48
2022-08-23T02:21:51.036Z,73.37
2022-08-23T02:25:54.940Z,73.49
2022-08-23T02:29:59.736Z,73.33
2022-08-23T02:38:27.278Z,73.52
2022-08-23T02:42:31.195Z,73.56
2022-08-23T02:46:35.937Z,73.58
2022-08-23T02:50:39.379Z,73.85
2022-08-23T02:54:43.236Z,73.80
2022-08-23T02:58:47.275Z,73.92
2022-08-23T03:02:58.650Z,74.00
2022-08-23T03:07:02.138Z,73.67
2022-08-23T03:11:13.125Z,73.90
2022-08-23T03:15:16.302Z,73.93
2022-08-23T03:19:22.381Z,74.11
2022-08-23T03:23:25.896Z,73.89
2022-08-23T03:27:29.841Z,74.12
2022-08-23T03:31:32.892Z,74.53
2022-08-23T03:35:38.045Z,74.00
2022-08-23T03:39:41.863Z,74.09
2022-08-23T03:43:45.364Z,74.06
2022-08-23T03:47:49.179Z,74.44
2022-08-23T03:51:54.782Z,73.89
2022-08-23T03:55:58.258Z,74.23
2022-08-23T04:00:02.108Z,74.12
2022-08-23T04:04:06.075Z,73.96
2022-08-23T04:08:12.489Z,74.04
2022-08-23T04:12:17.490Z,74.36
2022-08-23T04:16:21.632Z,74.02
2022-08-23T04:20:25.631Z,74.21
2022-08-23T04:24:31.971Z,74.24
2022-08-23T04:28:37.068Z,74.14
2022-08-23T04:32:41.213Z,74.39
2022-08-23T04:36:55.198Z,74.24
2022-08-23T04:41:17.826Z,74.52
2022-08-23T04:45:21.344Z,74.50
2022-08-23T04:49:26.173Z,74.60
2022-08-23T04:53:31.157Z,74.96
2022-08-23T04:57:35.660Z,74.82
2022-08-23T05:01:40.352Z,74.61
2022-08-23T05:05:43.994Z,74.69
2022-08-23T05:09:47.089Z,74.76
2022-08-23T05:13:52.659Z,74.93
2022-08-23T05:17:56.236Z,75.05
2022-08-23T05:21:59.361Z,75.00
2022-08-23T05:26:03.251Z,74.99
2022-08-23T05:30:14.418Z,74.78
2022-08-23T05:34:22.432Z,74.68
2022-08-23T05:38:26.812Z,74.83
2022-08-23T05:42:30.735Z,74.69
2022-08-23T05:46:35.824Z,74.97
2022-08-23T05:50:40.824Z,74.50
2022-08-23T05:54:44.543Z,74.29
2022-08-23T05:58:48.717Z,74.09
2022-08-23T06:02:54.154Z,73.69
2022-08-23T06:06:59.656Z,73.71
2022-08-23T06:11:05.314Z,73.39
2022-08-23T06:15:09.552Z,73.62
2022-08-23T06:19:16.129Z,73.45
2022-08-23T06:23:20.657Z,73.45
2022-08-23T06:27:24.524Z,73.66
2022-08-23T06:31:48.150Z,73.09
2022-08-23T06:36:03.723Z,73.32
2022-08-23T06:40:08.408Z,73.63
2022-08-23T06:44:13.201Z,73.55
2022-08-23T06:48:18.828Z,73.66
2022-08-23T06:52:24.195Z,73.58
2022-08-23T06:56:29.474Z,74.17
2022-08-23T07:00:33.165Z,74.18
2022-08-23T07:04:39.839Z,74.49
2022-08-23T07:08:45.545Z,74.89
2022-08-23T07:12:50.364Z,74.77
2022-08-23T07:16:56.964Z,74.93
2022-08-23T07:21:03.495Z,73.92
2022-08-23T07:25:09.100Z,74.11
2022-08-23T07:29:14.408Z,74.32
2022-08-23T07:33:18.211Z,73.62
2022-08-23T07:37:26.131Z,73.82
2022-08-23T07:41:32.767Z,73.65
2022-08-23T07:45:38.125Z,73.67
2022-08-23T07:49:42.387Z,72.99
2022-08-23T07:53:46.665Z,73.28
2022-08-23T07:57:51.770Z,72.63
2022-08-23T08:01:55.013Z,73.40
2022-08-23T08:06:00.241Z,73.06
2022-08-23T08:10:03.824Z,72.52
2022-08-23T08:14:10.758Z,73.14
2022-08-23T08:18:13.865Z,72.77
2022-08-23T08:22:17.442Z,72.60
2022-08-23T08:26:21.609Z,72.05
2022-08-23T08:30:27.147Z,72.48
2022-08-23T08:34:30.314Z,72.30
2022-08-23T08:38:36.822Z,72.30
2022-08-23T08:43:01.367Z,72.87
2022-08-23T08:47:11.804Z,72.79
2022-08-23T08:51:29.175Z,72.87
2022-08-23T08:55:39.338Z,72.51
2022-08-23T08:59:49.563Z,72.64
2022-08-23T09:03:55.265Z,72.34
2022-08-23T09:08:11.929Z,72.48
2022-08-23T09:12:22.097Z,72.20
2022-08-23T09:16:38.825Z,71.70
2022-08-23T09:20:46.474Z,71.86
2022-08-23T09:24:50.805Z,71.70
2022-08-23T09:28:56.454Z,72.25
2022-08-23T09:33:17.180Z,72.43
2022-08-23T09:37:24.761Z,72.50
2022-08-23T09:41:33.302Z,72.59
2022-08-23T09:45:39.013Z,71.86
2022-08-23T09:49:46.260Z,72.50
2022-08-23T09:53:53.866Z,72.61
2022-08-23T09:57:58.310Z,71.65
2022-08-23T10:02:02.943Z,71.29
2022-08-23T10:06:09.000Z,71.39
2022-08-23T10:10:23.782Z,71.31
2022-08-23T10:14:30.666Z,71.60
2022-08-23T10:18:53.012Z,72.02
2022-08-23T10:23:07.828Z,72.11
2022-08-23T10:27:47.336Z,72.40
2022-08-23T10:32:01.265Z,72.46
2022-08-23T10:36:14.167Z,72.13
2022-08-23T10:40:24.241Z,72.45
2022-08-23T10:44:35.894Z,71.41
2022-08-23T10:48:49.133Z,71.37
2022-08-23T10:52:55.691Z,71.75
2022-08-23T10:56:59.535Z,71.58
2022-08-23T11:01:05.571Z,71.88
2022-08-23T11:05:21.149Z,71.37
2022-08-23T11:09:38.053Z,71.36
2022-08-23T11:13:55.104Z,71.67
2022-08-23T11:18:05.137Z,70.55
2022-08-23T11:22:17.420Z,71.05
2022-08-23T11:26:54.212Z,71.14
2022-08-23T11:31:26.641Z,70.96
2022-08-23T11:35:43.143Z,70.13
2022-08-23T11:40:13.608Z,69.97
2022-08-23T11:44:25.574Z,69.89
2022-08-23T11:48:43.479Z,70.13
2022-08-23T11:53:07.683Z,70.01
2022-08-23T11:57:24.298Z,69.98
2022-08-23T12:01:33.687Z,70.07
2022-08-23T12:06:10.304Z,70.79
2022-08-23T12:10:26.048Z,70.47
2022-08-23T12:14:38.496Z,69.41
2022-08-23T12:18:47.833Z,68.89
2022-08-23T12:23:06.287Z,69.71
2022-08-23T12:27:29.536Z,69.75
2022-08-23T12:31:41.457Z,69.41
2022-08-23T12:35:52.080Z,69.62
2022-08-23T12:39:59.260Z,69.85
2022-08-23T12:44:08.494Z,69.90
2022-08-23T12:48:15.582Z,69.55
2022-08-23T12:52:19.330Z,69.22
2022-08-23T12:56:32.136Z,70.00
2022-08-23T13:00:40.772Z,69.54
2022-08-23T13:04:44.681Z,69.68
2022-08-23T13:08:55.103Z,69.83
2022-08-23T13:12:59.292Z,69.85
2022-08-23T13:17:23.815Z,70.10
2022-08-23T13:21:31.959Z,69.33
2022-08-23T13:25:44.707Z,69.69
2022-08-23T13:29:56.815Z,70.07
2022-08-23T13:34:02.149Z,69.78
2022-08-23T13:38:22.581Z,70.28
2022-08-23T13:42:35.545Z,70.38
2022-08-23T13:46:46.571Z,70.87
2022-08-23T13:50:52.656Z,70.71
2022-08-23T13:54:56.476Z,70.99
2022-08-23T13:59:03.438Z,70.97
2022-08-23T14:03:07.928Z,70.86
2022-08-23T14:07:13.217Z,71.52
2022-08-23T14:11:17.966Z,71.44
2022-08-23T14:15:54.659Z,71.90
2022-08-23T14:20:31.993Z,72.14
2022-08-23T14:24:12.762Z,71.80
2022-08-23T14:28:16.416Z,72.33
2022-08-23T14:32:20.129Z,72.79
2022-08-23T14:36:23.989Z,72.77
2022-08-23T14:40:36.308Z,72.30
2022-08-23T14:44:39.888Z,72.08
2022-08-23T14:48:43.848Z,72.48
2022-08-23T14:52:48.641Z,72.62
2022-08-23T14:56:54.155Z,71.60
2022-08-23T15:00:57.554Z,71.67
2022-08-23T15:05:01.201Z,71.56
2022-08-23T15:09:04.958Z,72.19
2022-08-23T15:13:21.815Z,71.81
2022-08-23T15:17:31.844Z,72.57
2022-08-23T15:21:35.727Z,72.91
2022-08-23T15:25:41.615Z,72.74
2022-08-23T15:29:46.728Z,72.81
2022-08-23T15:33:50.651Z,73.07
2022-08-23T15:37:54.689Z,73.01
2022-08-23T15:41:58.385Z,72.53
2022-08-23T15:46:06.182Z,72.52
2022-08-23T15:50:10.870Z,73.07
2022-08-23T15:54:14.761Z,73.02
2022-08-23T15:58:20.454Z,72.41
2022-08-23T16:02:25.447Z,72.78
2022-08-23T16:06:34.393Z,72.09
2022-08-23T16:10:41.579Z,72.80
2022-08-23T16:14:44.735Z,73.00
2022-08-23T16:18:51.734Z,73.40
2022-08-23T16:22:55.608Z,72.96
2022-08-23T16:26:59.403Z,72.54
2022-08-23T16:31:03.209Z,72.95
2022-08-23T16:35:08.989Z,73.27
2022-08-23T16:39:13.672Z,73.06
2022-08-23T16:43:17.272Z,73.26
2022-08-23T16:47:20.905Z,72.60
2022-08-23T16:51:26.511Z,73.05
2022-08-23T16:55:30.129Z,73.28
2022-08-23T16:59:36.189Z,73.45
2022-08-23T17:03:43.969Z,73.13
2022-08-23T17:07:50.078Z,73.37
2022-08-23T17:11:55.849Z,72.99
2022-08-23T17:15:59.243Z,72.88
2022-08-23T17:20:03.703Z,73.49
2022-08-23T17:24:11.947Z,72.83
2022-08-23T17:28:15.760Z,73.31
2022-08-23T17:32:19.602Z,73.53
2022-08-23T17:36:30.281Z,73.43
2022-08-23T17:40:37.374Z,73.43
2022-08-23T17:44:41.766Z,73.33
2022-08-23T17:48:45.641Z,73.67
2022-08-23T17:52:51.452Z,74.06
2022-08-23T17:56:56.105Z,73.81
2022-08-23T18:00:59.940Z,73.52
2022-08-23T18:05:03.874Z,73.85
2022-08-23T18:09:08.062Z,73.78
2022-08-23T18:13:12.944Z,74.13
2022-08-23T18:17:16.634Z,73.71
2022-08-23T18:21:21.574Z,73.77
2022-08-23T18:25:25.511Z,74.12
2022-08-23T18:29:30.762Z,74.11
2022-08-23T18:33:46.774Z,74.16
2022-08-23T18:37:51.136Z,74.04
2022-08-23T18:41:55.095Z,73.89
2022-08-23T18:46:01.106Z,74.00
2022-08-23T18:50:06.879Z,74.18
2022-08-23T18:54:11.152Z,74.16
2022-08-23T18:58:15.291Z,74.14
2022-08-23T19:02:20.743Z,74.14
2022-08-23T19:06:24.664Z,74.29
2022-08-23T19:10:28.478Z,74.15
2022-08-23T19:14:34.146Z,74.12
2022-08-23T19:18:39.443Z,73.99
2022-08-23T19:22:44.217Z,74.26
2022-08-23T19:26:49.144Z,74.08
2022-08-23T19:30:52.933Z,74.03
2022-08-23T19:34:58.951Z,74.33
2022-08-23T19:39:02.767Z,74.25
2022-08-23T19:43:06.547Z,74.10
2022-08-23T19:47:19.394Z,73.89
2022-08-23T19:51:26.684Z,73.92
2022-08-23T19:55:32.258Z,73.46
2022-08-23T19:59:39.853Z,73.95
2022-08-23T20:03:44.213Z,73.79
2022-08-23T20:07:49.533Z,73.98
2022-08-23T20:11:56.855Z,73.62
2022-08-23T20:16:01.350Z,73.69
2022-08-23T20:20:05.798Z,73.36
2022-08-23T20:24:12.727Z,73.63
2022-08-23T20:28:16.396Z,73.46
2022-08-23T20:32:20.331Z,73.71
2022-08-23T20:36:25.444Z,73.49
2022-08-23T20:40:30.593Z,73.51
2022-08-23T20:44:33.834Z,73.79
2022-08-23T20:48:38.104Z,73.94
2022-08-23T20:52:41.340Z,73.82
2022-08-23T20:56:46.762Z,73.38
2022-08-23T21:00:50.578Z,73.89
2022-08-23T21:04:54.234Z,73.96
2022-08-23T21:09:00.459Z,74.00
2022-08-23T21:13:10.493Z,73.84
2022-08-23T21:17:14.335Z,74.26
2022-08-23T21:21:21.529Z,73.94
2022-08-23T21:25:25.100Z,74.16
2022-08-23T21:29:30.364Z,74.58
2022-08-23T21:33:39.334Z,74.20
2022-08-23T21:37:43.922Z,74.50
2022-08-23T21:41:48.751Z,74.15
2022-08-23T21:45:53.527Z,74.23
2022-08-23T21:49:57.299Z,74.37
2022-08-23T21:54:00.905Z,74.22
2022-08-23T21:58:04.681Z,74.25
2022-08-23T22:02:09.163Z,74.16
2022-08-23T22:06:17.423Z,74.69
2022-08-23T22:10:21.954Z,74.28
2022-08-23T22:14:31.506Z,74.62
2022-08-23T22:18:37.310Z,74.34
2022-08-23T22:22:41.626Z,74.34
2022-08-23T22:26:46.486Z,74.39
2022-08-23T22:30:50.044Z,74.16
2022-08-23T22:34:55.583Z,74.18
2022-08-23T22:38:59.483Z,74.60
2022-08-23T22:43:03.327Z,74.81
2022-08-23T22:47:07.508Z,74.91
2022-08-23T22:51:14.813Z,75.02
2022-08-23T22:55:18.436Z,74.84
2022-08-23T22:59:27.497Z,74.84
2022-08-23T23:03:32.272Z,74.81
2022-08-23T23:07:54.709Z,75.09
2022-08-23T23:11:58.326Z,74.87
2022-08-23T23:16:04.697Z,74.91
2022-08-23T23:20:27.069Z,75.09
2022-08-23T23:24:36.150Z,74.99
2022-08-23T23:32:43.277Z,74.83
2022-08-23T23:36:47.535Z,75.41
2022-08-23T23:40:52.150Z,75.25
2022-08-23T23:44:55.888Z,75.30
2022-08-23T23:48:59.885Z,75.40
2022-08-23T23:53:03.096Z,75.37
2022-08-23T23:57:08.698Z,74.86
